createdAt,value
2023-04-14T00:00:58.065Z,61.99
2023-04-14T00:02:35.752Z,61.46
2023-04-14T00:03:58.644Z,61.72
2023-04-14T00:05:20.543Z,61.72
2023-04-14T00:07:08.838Z,62.01
2023-04-14T00:08:39.179Z,62.41
2023-04-14T00:10:05.127Z,62.13
2023-04-14T00:11:34.577Z,62.39
2023-04-14T00:13:01.730Z,62.23
2023-04-14T00:14:47.187Z,62.58
2023-04-14T00:16:25.732Z,62.68
2023-04-14T00:17:55.824Z,62.85
2023-04-14T00:19:17.744Z,62.22
2023-04-14T00:21:03.068Z,62.27
2023-04-14T00:22:25.054Z,61.92
2023-04-14T00:23:58.622Z,62.25
2023-04-14T00:25:44.297Z,61.88
2023-04-14T00:27:18.036Z,62.04
2023-04-14T00:28:40.568Z,61.67
2023-04-14T00:30:08.447Z,62.09
2023-04-14T00:31:31.554Z,62.38
2023-04-14T00:32:55.988Z,62.18
2023-04-14T00:34:17.611Z,62.05
2023-04-14T00:35:47.303Z,62.25
2023-04-14T00:37:09.368Z,62.54
2023-04-14T00:38:59.237Z,62.17
2023-04-14T00:40:46.563Z,62.85
2023-04-14T00:42:19.995Z,62.56
2023-04-14T00:44:05.327Z,62.71
2023-04-14T00:45:39.206Z,63.07
2023-04-14T00:47:03.736Z,62.96
2023-04-14T00:48:27.879Z,62.92
2023-04-14T00:49:49.885Z,63.16
2023-04-14T00:51:24.029Z,62.86
2023-04-14T00:53:09.298Z,62.57
2023-04-14T00:54:33.552Z,62.83
2023-04-14T00:56:09.252Z,62.99
2023-04-14T00:57:43.539Z,63.01
2023-04-14T00:59:18.315Z,63.48
2023-04-14T01:00:52.486Z,63.90
2023-04-14T01:02:16.696Z,63.63
2023-04-14T01:03:53.191Z,63.61
2023-04-14T01:05:17.209Z,63.59
2023-04-14T01:06:52.846Z,64.14
2023-04-14T01:08:28.806Z,63.96
2023-04-14T01:10:12.960Z,64.06
2023-04-14T01:11:48.318Z,64.01
2023-04-14T01:13:33.684Z,64.31
2023-04-14T01:15:08.909Z,64.64
2023-04-14T01:16:50.098Z,64.66
2023-04-14T01:18:35.586Z,64.76
2023-04-14T01:20:09.052Z,65.17
2023-04-14T01:21:54.324Z,64.94
2023-04-14T01:23:20.532Z,65.41
2023-04-14T01:25:14.772Z,65.49
2023-04-14T01:27:02.938Z,65.64
2023-04-14T01:28:56.716Z,65.72
2023-04-14T01:30:30.385Z,65.67
2023-04-14T01:32:05.937Z,65.84
2023-04-14T01:33:37.537Z,66.17
2023-04-14T01:35:13.400Z,66.40
2023-04-14T01:36:50.360Z,66.69
2023-04-14T01:38:25.898Z,66.87
2023-04-14T01:40:09.283Z,66.66
2023-04-14T01:41:43.614Z,66.63
2023-04-14T01:43:07.304Z,66.63
2023-04-14T01:44:53.804Z,66.99
2023-04-14T01:46:42.243Z,66.91
2023-04-14T01:48:06.665Z,67.23
2023-04-14T01:49:40.748Z,67.01
2023-04-14T01:51:15.745Z,66.86
2023-04-14T01:52:57.537Z,66.93
2023-04-14T01:54:43.078Z,67.06
2023-04-14T01:56:29.548Z,67.02
2023-04-14T01:57:54.042Z,67.25
2023-04-14T01:59:40.414Z,67.38
2023-04-14T02:01:26.902Z,67.65
2023-04-14T02:03:12.726Z,67.54
2023-04-14T02:04:58.250Z,67.51
2023-04-14T02:06:44.383Z,67.63
2023-04-14T02:08:10.379Z,67.84
2023-04-14T02:09:46.482Z,67.73
2023-04-14T02:11:20.249Z,67.67
2023-04-14T02:12:55.917Z,67.35
2023-04-14T02:14:34.538Z,67.09
2023-04-14T02:16:08.020Z,67.06
2023-04-14T02:17:41.621Z,66.61
2023-04-14T02:19:23.846Z,66.38
2023-04-14T02:20:57.280Z,66.25
2023-04-14T02:22:34.552Z,65.97
2023-04-14T02:24:15.251Z,65.96
2023-04-14T02:25:56.525Z,66.03
2023-04-14T02:27:32.394Z,65.92
2023-04-14T02:29:09.713Z,66.07
2023-04-14T02:30:45.274Z,65.81
2023-04-14T02:32:20.956Z,65.83
2023-04-14T02:33:57.191Z,65.90
2023-04-14T02:35:42.724Z,65.86
2023-04-14T02:37:27.643Z,65.97
2023-04-14T02:39:03.665Z,65.71
2023-04-14T02:40:38.108Z,65.66
2023-04-14T02:42:12.574Z,65.47
2023-04-14T02:43:46.526Z,65.37
2023-04-14T02:45:21.807Z,65.46
2023-04-14T02:47:07.007Z,65.89
2023-04-14T02:49:04.678Z,66.04
2023-04-14T02:50:58.755Z,66.26
2023-04-14T02:52:33.863Z,65.92
2023-04-14T02:54:15.658Z,65.88
2023-04-14T02:56:03.891Z,65.59
2023-04-14T02:57:34.146Z,65.64
2023-04-14T02:58:58.213Z,65.98
2023-04-14T03:00:33.246Z,65.54
2023-04-14T03:01:59.496Z,65.49
2023-04-14T03:03:35.357Z,65.18
2023-04-14T03:05:17.232Z,65.35
2023-04-14T03:07:04.286Z,65.65
2023-04-14T03:08:49.989Z,65.59
2023-04-14T03:10:22.515Z,65.62
2023-04-14T03:12:18.666Z,65.29
2023-04-14T03:14:09.662Z,65.33
2023-04-14T03:15:55.098Z,65.34
2023-04-14T03:17:36.335Z,65.11
2023-04-14T03:19:23.445Z,64.85
2023-04-14T03:21:05.074Z,65.03
2023-04-14T03:22:41.251Z,64.75
2023-04-14T03:24:37.207Z,64.45
2023-04-14T03:26:26.281Z,64.22
2023-04-14T03:28:00.525Z,64.06
2023-04-14T03:29:34.104Z,64.35
2023-04-14T03:31:19.141Z,63.74
2023-04-14T03:33:07.978Z,63.81
2023-04-14T03:34:57.057Z,63.87
2023-04-14T03:36:43.392Z,63.76
2023-04-14T03:38:30.002Z,63.58
2023-04-14T03:40:14.615Z,63.34
2023-04-14T03:42:01.381Z,63.42
2023-04-14T03:43:35.206Z,63.55
2023-04-14T03:45:30.395Z,63.24
2023-04-14T03:47:24.906Z,62.83
2023-04-14T03:49:00.346Z,63.38
2023-04-14T03:50:45.466Z,63.45
2023-04-14T03:52:26.677Z,63.38
2023-04-14T03:54:02.643Z,63.40
2023-04-14T03:55:26.991Z,63.30
2023-04-14T03:57:12.506Z,63.46
2023-04-14T03:59:08.420Z,63.83
2023-04-14T04:00:55.405Z,63.68
2023-04-14T04:02:31.441Z,64.10
2023-04-14T04:04:14.828Z,64.49
2023-04-14T04:06:07.001Z,64.79
2023-04-14T04:07:54.386Z,65.12
2023-04-14T04:09:35.458Z,65.33
2023-04-14T04:11:21.003Z,65.39
2023-04-14T04:13:06.293Z,65.83
2023-04-14T04:14:41.349Z,66.01
2023-04-14T04:16:27.349Z,66.49
2023-04-14T04:18:21.970Z,66.22
2023-04-14T04:19:58.718Z,66.85
2023-04-14T04:21:44.533Z,67.04
2023-04-14T04:23:29.821Z,67.12
2023-04-14T04:25:03.509Z,67.55
2023-04-14T04:26:50.600Z,67.66
2023-04-14T04:28:24.020Z,67.67
2023-04-14T04:29:58.707Z,67.94
2023-04-14T04:31:35.405Z,68.10
2023-04-14T04:33:10.209Z,68.29
2023-04-14T04:34:57.147Z,68.31
2023-04-14T04:36:45.177Z,68.61
2023-04-14T04:38:21.492Z,68.59
2023-04-14T04:40:02.770Z,69.03
2023-04-14T04:41:36.541Z,68.90
2023-04-14T04:43:21.930Z,69.03
2023-04-14T04:44:58.124Z,69.01
2023-04-14T04:46:27.309Z,69.19
2023-04-14T04:48:13.021Z,68.99
2023-04-14T04:49:58.820Z,69.27
2023-04-14T04:51:44.810Z,69.39
2023-04-14T04:53:20.800Z,69.37
2023-04-14T04:54:54.778Z,69.23
2023-04-14T04:56:32.834Z,69.41
2023-04-14T04:58:08.642Z,69.48
2023-04-14T04:59:43.594Z,69.53
2023-04-14T05:01:14.768Z,69.51
2023-04-14T05:03:03.668Z,69.64
2023-04-14T05:04:25.869Z,69.61
2023-04-14T05:06:04.850Z,69.79
2023-04-14T05:07:51.431Z,69.75
2023-04-14T05:09:37.154Z,69.79
2023-04-14T05:11:10.588Z,69.74
2023-04-14T05:12:47.048Z,70.03
2023-04-14T05:14:32.223Z,69.78
2023-04-14T05:16:18.787Z,69.83
2023-04-14T05:20:05.743Z,69.97
2023-04-14T05:21:54.099Z,70.04
2023-04-14T05:23:28.099Z,69.86
2023-04-14T05:25:01.714Z,69.64
2023-04-14T05:26:57.777Z,69.93
2023-04-14T05:28:40.783Z,69.64
2023-04-14T05:30:18.761Z,69.32
2023-04-14T05:32:04.017Z,69.73
2023-04-14T05:33:49.576Z,69.95
2023-04-14T05:35:34.909Z,69.75
2023-04-14T05:37:15.689Z,69.40
2023-04-14T05:39:01.748Z,69.22
2023-04-14T05:40:37.475Z,69.68
2023-04-14T05:42:19.370Z,69.48
2023-04-14T05:44:04.543Z,69.57
2023-04-14T05:45:52.711Z,69.30
2023-04-14T05:47:26.226Z,69.16
2023-04-14T05:49:07.846Z,69.15
2023-04-14T05:50:41.589Z,68.98
2023-04-14T05:52:29.561Z,68.79
2023-04-14T05:54:12.594Z,68.35
2023-04-14T05:56:05.442Z,68.59
2023-04-14T05:57:39.229Z,68.61
2023-04-14T05:59:24.524Z,68.13
2023-04-14T06:01:05.194Z,68.20
2023-04-14T06:02:46.366Z,68.72
2023-04-14T06:04:20.721Z,68.65
2023-04-14T06:05:55.554Z,69.03
2023-04-14T06:07:42.018Z,68.31
2023-04-14T06:09:03.941Z,68.54
2023-04-14T06:10:37.575Z,67.70
2023-04-14T06:12:30.855Z,67.84
2023-04-14T06:14:24.312Z,67.72
2023-04-14T06:16:00.621Z,67.25
2023-04-14T06:17:35.728Z,67.55
2023-04-14T06:19:22.099Z,67.32
2023-04-14T06:21:07.588Z,67.36
2023-04-14T06:22:52.997Z,67.42
2023-04-14T06:24:28.478Z,67.40
2023-04-14T06:26:22.442Z,67.20
2023-04-14T06:28:15.219Z,67.39
2023-04-14T06:29:37.696Z,67.06
2023-04-14T06:31:26.423Z,66.73
2023-04-14T06:33:11.471Z,66.93
2023-04-14T06:34:57.627Z,66.94
2023-04-14T06:36:43.855Z,66.69
2023-04-14T06:38:32.139Z,66.45
2023-04-14T06:40:07.229Z,66.25
2023-04-14T06:41:44.763Z,65.57
2023-04-14T06:43:19.870Z,65.75
2023-04-14T06:44:44.685Z,65.83
2023-04-14T06:46:29.775Z,65.88
2023-04-14T06:48:15.166Z,65.89
2023-04-14T06:49:49.654Z,65.55
2023-04-14T06:51:35.936Z,65.13
2023-04-14T06:53:17.729Z,65.02
2023-04-14T06:54:51.635Z,64.54
2023-04-14T06:56:24.723Z,64.23
2023-04-14T06:57:56.364Z,64.21
2023-04-14T06:59:30.024Z,64.06
2023-04-14T07:01:04.201Z,63.97
2023-04-14T07:02:40.166Z,64.06
2023-04-14T07:04:28.145Z,63.90
2023-04-14T07:06:01.997Z,63.90
2023-04-14T07:07:26.327Z,63.85
2023-04-14T07:09:00.241Z,63.84
2023-04-14T07:10:47.030Z,63.91
2023-04-14T07:12:23.166Z,63.81
2023-04-14T07:14:10.426Z,63.26
2023-04-14T07:15:32.269Z,62.87
2023-04-14T07:16:54.125Z,61.84
2023-04-14T07:18:30.318Z,61.33
2023-04-14T07:20:17.822Z,60.74
2023-04-14T07:21:51.230Z,59.89
2023-04-14T07:23:24.804Z,60.23
2023-04-14T07:24:58.521Z,59.72
2023-04-14T07:26:39.208Z,60.05
2023-04-14T07:28:24.459Z,59.27
2023-04-14T07:30:06.281Z,58.79
2023-04-14T07:31:40.181Z,58.88
2023-04-14T07:33:28.441Z,58.21
2023-04-14T07:35:14.658Z,58.82
2023-04-14T07:37:10.064Z,57.52
2023-04-14T07:38:45.100Z,57.06
2023-04-14T07:40:30.226Z,56.19
2023-04-14T07:42:14.426Z,55.20
2023-04-14T07:44:09.678Z,55.73
2023-04-14T07:45:43.633Z,55.38
2023-04-14T07:47:16.996Z,55.30
2023-04-14T07:49:02.875Z,54.95
2023-04-14T07:50:38.819Z,54.63
2023-04-14T07:52:29.652Z,55.01
2023-04-14T07:54:21.224Z,54.70
2023-04-14T07:56:11.861Z,54.59
2023-04-14T07:58:04.078Z,54.40
2023-04-14T07:59:50.534Z,53.87
2023-04-14T08:01:24.608Z,52.81
2023-04-14T08:02:57.874Z,53.05
2023-04-14T08:04:43.894Z,53.07
2023-04-14T08:06:18.198Z,52.87
2023-04-14T08:08:01.755Z,52.93
2023-04-14T08:09:35.855Z,52.52
2023-04-14T08:11:29.638Z,52.47
2023-04-14T08:13:23.558Z,52.45
2023-04-14T08:14:57.604Z,53.08
2023-04-14T08:16:40.905Z,52.25
2023-04-14T08:18:26.458Z,52.62
2023-04-14T08:20:11.624Z,52.69
2023-04-14T08:21:45.919Z,51.74
2023-04-14T08:23:30.913Z,50.93
2023-04-14T08:25:04.655Z,50.81
2023-04-14T08:26:50.723Z,50.44
2023-04-14T08:28:35.712Z,50.91
2023-04-14T08:30:11.711Z,51.22
2023-04-14T08:31:45.779Z,51.49
2023-04-14T08:33:31.097Z,52.46
2023-04-14T08:35:35.696Z,52.44
2023-04-14T08:37:08.411Z,52.57
2023-04-14T08:38:54.137Z,52.27
2023-04-14T08:40:35.150Z,51.99
2023-04-14T08:42:20.788Z,52.07
2023-04-14T08:44:05.365Z,52.81
2023-04-14T08:45:26.826Z,52.57
2023-04-14T08:47:00.629Z,52.38
2023-04-14T08:48:46.500Z,51.88
2023-04-14T08:50:32.323Z,52.15
2023-04-14T08:52:05.570Z,51.39
2023-04-14T08:53:29.655Z,51.67
2023-04-14T08:54:52.163Z,51.41
2023-04-14T08:56:25.460Z,51.64
2023-04-14T08:57:49.799Z,51.41
2023-04-14T08:59:34.655Z,51.22
2023-04-14T09:00:58.812Z,51.54
2023-04-14T09:02:34.964Z,51.87
2023-04-14T09:04:20.405Z,52.12
2023-04-14T09:05:53.896Z,51.81
2023-04-14T09:07:30.443Z,51.68
2023-04-14T09:09:00.168Z,51.48
2023-04-14T09:10:46.288Z,51.50
2023-04-14T09:12:26.168Z,51.19
2023-04-14T09:14:07.165Z,50.70
2023-04-14T09:15:29.379Z,50.21
2023-04-14T09:17:10.034Z,50.71
2023-04-14T09:18:44.122Z,50.45
2023-04-14T09:20:37.619Z,50.57
2023-04-14T09:22:10.051Z,49.84
2023-04-14T09:23:43.994Z,49.27
2023-04-14T09:25:29.087Z,48.88
2023-04-14T09:27:03.332Z,48.55
2023-04-14T09:28:37.138Z,47.75
2023-04-14T09:30:03.704Z,47.55
2023-04-14T09:31:50.097Z,46.68
2023-04-14T09:33:35.287Z,46.13
2023-04-14T09:35:16.244Z,46.36
2023-04-14T09:36:54.384Z,46.30
2023-04-14T09:38:18.574Z,46.90
2023-04-14T09:39:47.675Z,46.84
2023-04-14T09:41:09.412Z,46.46
2023-04-14T09:43:04.649Z,46.55
2023-04-14T09:44:38.342Z,46.39
2023-04-14T09:46:26.683Z,46.56
2023-04-14T09:48:03.966Z,46.66
2023-04-14T09:49:42.279Z,45.59
2023-04-14T09:51:18.320Z,45.13
2023-04-14T09:53:06.271Z,44.77
2023-04-14T09:54:39.956Z,45.61
2023-04-14T09:56:15.803Z,45.96
2023-04-14T10:00:01.660Z,43.59
2023-04-14T10:01:44.408Z,42.45
2023-04-14T10:03:29.309Z,42.50
2023-04-14T10:04:58.823Z,42.88
2023-04-14T10:06:32.577Z,43.69
2023-04-14T10:08:06.525Z,43.73
2023-04-14T10:09:43.238Z,43.03
2023-04-14T10:11:07.526Z,42.90
2023-04-14T10:12:43.591Z,42.96
2023-04-14T10:14:19.086Z,42.38
2023-04-14T10:15:53.432Z,41.88
2023-04-14T10:17:38.709Z,42.16
2023-04-14T10:19:14.646Z,42.20
2023-04-14T10:20:38.862Z,42.18
2023-04-14T10:22:06.599Z,41.25
2023-04-14T10:23:36.638Z,41.02
2023-04-14T10:25:10.098Z,40.33
2023-04-14T10:26:36.597Z,40.65
2023-04-14T10:28:12.103Z,41.22
2023-04-14T10:29:57.724Z,40.97
2023-04-14T10:31:33.344Z,41.45
2023-04-14T10:33:26.833Z,41.19
2023-04-14T10:34:58.228Z,40.50
2023-04-14T10:36:39.585Z,40.11
2023-04-14T10:38:29.034Z,40.46
2023-04-14T10:40:14.054Z,40.74
2023-04-14T10:42:07.665Z,40.21
2023-04-14T10:43:39.551Z,40.97
2023-04-14T10:45:15.463Z,40.74
2023-04-14T10:46:57.363Z,40.87
2023-04-14T10:48:23.382Z,40.44
2023-04-14T10:50:16.899Z,40.78
2023-04-14T10:51:50.401Z,40.12
2023-04-14T10:53:25.826Z,40.89
2023-04-14T10:55:05.626Z,41.59
2023-04-14T10:56:38.820Z,41.55
2023-04-14T10:58:22.906Z,41.11
2023-04-14T10:59:47.647Z,41.76
2023-04-14T11:01:12.202Z,41.20
2023-04-14T11:02:48.375Z,41.00
2023-04-14T11:04:33.204Z,40.54
2023-04-14T11:06:02.504Z,40.57
2023-04-14T11:08:02.396Z,40.58
2023-04-14T11:09:39.068Z,40.04
2023-04-14T11:11:08.257Z,39.65
2023-04-14T11:12:43.093Z,39.66
2023-04-14T11:14:23.201Z,40.36
2023-04-14T11:15:47.980Z,40.76
2023-04-14T11:17:34.158Z,40.43
2023-04-14T11:18:56.438Z,40.75
2023-04-14T11:20:19.282Z,40.49
2023-04-14T11:21:53.932Z,41.30
2023-04-14T11:23:19.300Z,41.42
2023-04-14T11:24:48.962Z,41.74
2023-04-14T11:26:10.644Z,41.30
2023-04-14T11:27:48.650Z,40.96
2023-04-14T11:29:11.141Z,40.42
2023-04-14T11:30:35.911Z,39.87
2023-04-14T11:31:58.171Z,39.64
2023-04-14T11:33:22.004Z,39.51
2023-04-14T11:34:58.308Z,38.67
2023-04-14T11:36:20.037Z,39.10
2023-04-14T11:37:54.357Z,39.07
2023-04-14T11:39:28.888Z,39.30
2023-04-14T11:40:58.254Z,39.19
2023-04-14T11:42:32.428Z,39.16
2023-04-14T11:44:25.790Z,38.90
2023-04-14T11:46:18.764Z,38.53
2023-04-14T11:48:04.431Z,38.95
2023-04-14T11:49:37.780Z,38.81
2023-04-14T11:51:13.602Z,39.01
2023-04-14T11:53:07.259Z,39.60
2023-04-14T11:54:52.548Z,39.15
2023-04-14T11:56:27.828Z,39.10
2023-04-14T11:58:03.271Z,39.16
2023-04-14T11:59:36.681Z,39.36
2023-04-14T12:00:58.525Z,39.60
2023-04-14T12:02:20.393Z,39.15
2023-04-14T12:03:50.289Z,39.50
2023-04-14T12:05:12.386Z,39.48
2023-04-14T12:06:45.989Z,39.73
2023-04-14T12:08:19.350Z,39.53
2023-04-14T12:10:04.679Z,39.19
2023-04-14T12:11:40.439Z,39.20
2023-04-14T12:13:23.688Z,38.44
2023-04-14T12:14:57.054Z,37.68
2023-04-14T12:16:42.879Z,37.82
2023-04-14T12:19:49.941Z,35.95
2023-04-14T12:21:25.677Z,34.78
2023-04-14T12:23:11.209Z,35.21
2023-04-14T12:24:47.361Z,35.72
2023-04-14T12:26:20.978Z,35.30
2023-04-14T12:28:05.909Z,35.37
2023-04-14T12:29:36.466Z,35.14
2023-04-14T12:31:19.385Z,35.35
2023-04-14T12:33:02.947Z,34.60
2023-04-14T12:34:36.644Z,35.46
2023-04-14T12:36:12.209Z,36.50
2023-04-14T12:37:46.147Z,36.69
2023-04-14T12:39:30.906Z,37.62
2023-04-14T12:41:16.408Z,38.06
2023-04-14T12:43:10.033Z,38.19
2023-04-14T12:44:43.906Z,38.65
2023-04-14T12:46:28.867Z,39.21
2023-04-14T12:48:10.833Z,39.37
2023-04-14T12:50:02.888Z,39.48
2023-04-14T12:51:36.342Z,39.37
2023-04-14T12:53:00.292Z,39.77
2023-04-14T12:54:34.349Z,39.75
2023-04-14T12:56:16.076Z,39.43
2023-04-14T12:57:49.896Z,40.13
2023-04-14T12:59:11.983Z,40.33
2023-04-14T13:00:57.924Z,40.87
2023-04-14T13:02:24.844Z,41.21
2023-04-14T13:03:58.679Z,41.30
2023-04-14T13:05:20.429Z,41.36
2023-04-14T13:06:50.626Z,41.14
2023-04-14T13:08:26.111Z,41.14
2023-04-14T13:10:08.323Z,41.08
2023-04-14T13:11:40.405Z,41.16
2023-04-14T13:13:34.695Z,41.57
2023-04-14T13:16:10.456Z,41.59
2023-04-14T13:17:24.662Z,41.82
2023-04-14T13:18:59.202Z,41.81
2023-04-14T13:20:33.045Z,41.93
2023-04-14T13:21:56.869Z,42.47
2023-04-14T13:23:37.216Z,42.69
2023-04-14T13:25:17.616Z,42.46
2023-04-14T13:26:41.773Z,43.05
2023-04-14T13:28:03.768Z,42.86
2023-04-14T13:29:37.048Z,42.85
2023-04-14T13:31:23.358Z,43.05
2023-04-14T13:32:59.646Z,41.99
2023-04-14T13:34:45.620Z,41.07
2023-04-14T13:36:30.509Z,40.63
2023-04-14T13:38:07.007Z,40.42
2023-04-14T13:39:52.561Z,40.24
2023-04-14T13:41:33.887Z,40.00
2023-04-14T13:43:05.337Z,40.16
2023-04-14T13:44:39.212Z,39.56
2023-04-14T13:46:24.483Z,39.54
2023-04-14T13:48:01.345Z,39.66
2023-04-14T13:49:31.959Z,40.38
2023-04-14T13:50:55.600Z,40.20
2023-04-14T13:52:41.173Z,39.97
2023-04-14T13:54:02.950Z,40.08
2023-04-14T13:55:36.623Z,39.66
2023-04-14T13:57:24.673Z,38.80
2023-04-14T13:59:11.864Z,38.87
2023-04-14T14:00:52.197Z,38.55
2023-04-14T14:02:21.491Z,38.71
2023-04-14T14:03:55.143Z,38.45
2023-04-14T14:05:35.453Z,38.42
2023-04-14T14:07:11.177Z,38.68
2023-04-14T14:08:41.862Z,38.22
2023-04-14T14:10:11.037Z,38.13
2023-04-14T14:11:47.109Z,38.34
2023-04-14T14:13:20.514Z,37.85
2023-04-14T14:14:44.977Z,37.93
2023-04-14T14:16:35.970Z,38.38
2023-04-14T14:18:21.998Z,38.46
2023-04-14T14:19:56.481Z,38.24
2023-04-14T14:21:32.622Z,38.32
2023-04-14T14:23:06.177Z,38.28
2023-04-14T14:24:39.262Z,38.07
2023-04-14T14:26:24.154Z,37.67
2023-04-14T14:28:09.440Z,37.74
2023-04-14T14:29:31.881Z,37.95
2023-04-14T14:31:05.703Z,38.28
2023-04-14T14:32:40.327Z,38.92
2023-04-14T14:34:21.240Z,39.19
2023-04-14T14:35:57.568Z,39.14
2023-04-14T14:37:44.017Z,39.03
2023-04-14T14:39:37.704Z,39.17
2023-04-14T14:43:44.988Z,39.15
2023-04-14T14:45:31.383Z,39.38
2023-04-14T14:47:17.516Z,39.23
2023-04-14T14:48:38.214Z,38.39
2023-04-14T14:50:10.920Z,38.86
2023-04-14T14:51:52.312Z,39.01
2023-04-14T14:53:14.881Z,38.89
2023-04-14T14:54:49.500Z,39.05
2023-04-14T14:56:21.882Z,39.19
2023-04-14T14:58:02.298Z,39.43
2023-04-14T14:59:42.287Z,39.78
2023-04-14T15:01:14.553Z,40.11
2023-04-14T15:02:37.875Z,40.45
2023-04-14T15:04:23.150Z,40.91
2023-04-14T15:05:51.615Z,41.09
2023-04-14T15:07:12.440Z,41.29
2023-04-14T15:08:56.746Z,41.00
2023-04-14T15:10:41.582Z,41.35
2023-04-14T15:12:14.456Z,41.70
2023-04-14T15:13:58.658Z,42.42
2023-04-14T15:15:33.245Z,42.92
2023-04-14T15:17:17.432Z,42.78
2023-04-14T15:19:01.322Z,43.31
2023-04-14T15:20:54.511Z,43.56
2023-04-14T15:22:17.068Z,43.72
2023-04-14T15:23:43.393Z,43.96
2023-04-14T15:25:12.697Z,43.99
2023-04-14T15:26:56.886Z,44.30
2023-04-14T15:28:19.825Z,44.12
2023-04-14T15:29:40.356Z,43.55
2023-04-14T15:31:01.058Z,44.13
2023-04-14T15:32:26.367Z,44.45
2023-04-14T15:33:54.434Z,44.07
2023-04-14T15:35:30.329Z,43.94
2023-04-14T15:36:51.090Z,44.11
2023-04-14T15:38:36.875Z,43.83
2023-04-14T15:40:12.214Z,43.69
2023-04-14T15:41:40.073Z,43.91
2023-04-14T15:43:20.119Z,44.42
2023-04-14T15:44:48.028Z,44.46
2023-04-14T15:46:32.256Z,44.80
2023-04-14T15:48:16.375Z,45.32
2023-04-14T15:49:39.189Z,45.50
2023-04-14T15:51:11.211Z,45.80
2023-04-14T15:52:46.043Z,46.07
2023-04-14T15:54:38.571Z,46.34
2023-04-14T15:56:22.239Z,46.58
2023-04-14T15:58:06.249Z,46.67
2023-04-14T15:59:40.500Z,46.75
2023-04-14T16:01:16.782Z,47.14
2023-04-14T16:02:45.550Z,47.49
2023-04-14T16:04:33.950Z,47.48
2023-04-14T16:06:06.743Z,48.04
2023-04-14T16:07:37.567Z,47.87
2023-04-14T16:09:09.446Z,48.16
2023-04-14T16:10:30.038Z,48.07
2023-04-14T16:11:50.265Z,48.49
2023-04-14T16:13:30.386Z,48.75
2023-04-14T16:14:54.229Z,48.84
2023-04-14T16:16:30.039Z,49.08
2023-04-14T16:18:04.257Z,49.36
2023-04-14T16:19:32.635Z,49.59
2023-04-14T16:20:57.552Z,49.65
2023-04-14T16:22:34.030Z,50.04
2023-04-14T16:24:13.528Z,50.07
2023-04-14T16:25:37.642Z,50.24
2023-04-14T16:27:00.860Z,50.57
2023-04-14T16:28:45.008Z,50.88
2023-04-14T16:30:20.009Z,50.90
2023-04-14T16:31:52.249Z,51.09
2023-04-14T16:33:13.355Z,51.31
2023-04-14T16:34:52.660Z,51.54
2023-04-14T16:36:12.677Z,51.59
2023-04-14T16:38:05.512Z,52.13
2023-04-14T16:39:32.994Z,52.21
2023-04-14T16:40:55.711Z,52.18
2023-04-14T16:42:25.945Z,52.71
2023-04-14T16:44:00.488Z,52.63
2023-04-14T16:45:34.842Z,53.03
2023-04-14T16:47:06.738Z,53.08
2023-04-14T16:48:30.080Z,53.22
2023-04-14T16:50:10.844Z,53.46
2023-04-14T16:51:33.827Z,53.50
2023-04-14T16:53:17.946Z,53.50
2023-04-14T16:54:50.209Z,53.93
2023-04-14T16:56:24.534Z,54.05
2023-04-14T16:58:07.747Z,54.30
2023-04-14T17:00:00.665Z,54.82
2023-04-14T17:01:40.058Z,54.94
2023-04-14T17:03:14.624Z,55.48
2023-04-14T17:04:45.696Z,55.67
2023-04-14T17:06:38.022Z,57.01
2023-04-14T17:08:21.240Z,56.63
2023-04-14T17:09:44.560Z,57.03
2023-04-14T17:11:24.266Z,56.94
2023-04-14T17:12:56.451Z,57.03
2023-04-14T17:14:37.495Z,57.34
2023-04-14T17:16:21.989Z,57.25
2023-04-14T17:17:54.095Z,58.86
2023-04-14T17:19:21.454Z,58.12
2023-04-14T17:20:41.856Z,58.12
2023-04-14T17:22:20.563Z,58.17
2023-04-14T17:23:56.496Z,58.26
2023-04-14T17:25:41.469Z,58.47
2023-04-14T17:27:14.625Z,58.68
2023-04-14T17:28:45.367Z,58.78
2023-04-14T17:30:10.257Z,58.55
2023-04-14T17:31:42.026Z,58.62
2023-04-14T17:33:16.451Z,58.53
2023-04-14T17:34:51.158Z,58.57
2023-04-14T17:36:43.483Z,58.74
2023-04-14T17:38:08.861Z,58.79
2023-04-14T17:39:28.870Z,59.07
2023-04-14T17:41:01.666Z,59.23
2023-04-14T17:42:34.205Z,59.43
2023-04-14T17:44:07.369Z,59.64
2023-04-14T17:45:43.043Z,59.63
2023-04-14T17:47:22.151Z,59.51
2023-04-14T17:48:54.752Z,59.55
2023-04-14T17:50:22.524Z,59.78
2023-04-14T17:51:43.895Z,59.77
2023-04-14T17:53:23.232Z,59.59
2023-04-14T17:54:55.497Z,59.58
2023-04-14T17:56:27.174Z,59.86
2023-04-14T17:57:50.500Z,60.07
2023-04-14T17:59:12.070Z,60.06
2023-04-14T18:00:39.965Z,60.01
2023-04-14T18:02:21.236Z,60.15
2023-04-14T18:04:05.346Z,60.08
2023-04-14T18:05:28.147Z,60.36
2023-04-14T18:07:02.909Z,60.54
2023-04-14T18:08:43.060Z,60.78
2023-04-14T18:10:04.012Z,60.80
2023-04-14T18:11:48.056Z,60.87
2023-04-14T18:13:18.458Z,60.93
2023-04-14T18:14:38.817Z,61.18
2023-04-14T18:16:01.335Z,60.99
2023-04-14T18:17:28.739Z,60.90
2023-04-14T18:18:58.443Z,61.13
2023-04-14T18:20:32.849Z,61.23
2023-04-14T18:22:07.795Z,61.37
2023-04-14T18:23:29.289Z,61.56
2023-04-14T18:24:50.195Z,61.61
2023-04-14T18:29:21.845Z,62.05
2023-04-14T18:30:45.915Z,62.61
2023-04-14T18:32:13.898Z,62.42
2023-04-14T18:33:55.632Z,62.59
2023-04-14T18:35:42.665Z,62.65
2023-04-14T18:37:05.190Z,62.57
2023-04-14T18:38:27.600Z,62.60
2023-04-14T18:40:11.195Z,62.31
2023-04-14T18:41:34.289Z,62.55
2023-04-14T18:42:56.667Z,62.98
2023-04-14T18:44:36.136Z,62.78
2023-04-14T18:46:11.294Z,62.81
2023-04-14T18:47:51.140Z,63.07
2023-04-14T18:49:23.290Z,63.20
2023-04-14T18:51:07.169Z,63.72
2023-04-14T18:52:50.587Z,63.76
2023-04-14T18:54:25.561Z,63.69
2023-04-14T18:55:47.388Z,63.85
2023-04-14T18:57:32.435Z,63.98
2023-04-14T18:58:53.056Z,63.95
2023-04-14T19:00:23.356Z,64.03
2023-04-14T19:01:55.733Z,63.94
2023-04-14T19:03:36.127Z,63.96
2023-04-14T19:05:06.563Z,64.04
2023-04-14T19:06:39.681Z,64.22
2023-04-14T19:08:23.221Z,64.41
2023-04-14T19:10:03.500Z,64.62
2023-04-14T19:11:44.519Z,64.99
2023-04-14T19:13:27.977Z,64.88
2023-04-14T19:15:11.556Z,64.76
2023-04-14T19:16:34.920Z,64.76
2023-04-14T19:18:09.146Z,64.54
2023-04-14T19:19:53.576Z,64.50
2023-04-14T19:21:13.470Z,64.43
2023-04-14T19:22:37.193Z,64.85
2023-04-14T19:24:20.434Z,64.65
2023-04-14T19:26:04.555Z,65.20
2023-04-14T19:27:24.749Z,65.40
2023-04-14T19:28:56.759Z,65.45
2023-04-14T19:30:40.616Z,65.20
2023-04-14T19:32:03.116Z,65.05
2023-04-14T19:33:42.861Z,65.24
2023-04-14T19:35:14.618Z,65.22
2023-04-14T19:36:59.726Z,64.82
2023-04-14T19:38:32.572Z,64.88
2023-04-14T19:40:05.758Z,65.31
2023-04-14T19:41:26.276Z,65.29
2023-04-14T19:42:58.790Z,65.61
2023-04-14T19:44:33.541Z,65.62
2023-04-14T19:46:13.173Z,65.69
2023-04-14T19:47:47.371Z,65.59
2023-04-14T19:49:19.105Z,65.99
2023-04-14T19:50:51.334Z,65.99
2023-04-14T19:52:23.792Z,65.89
2023-04-14T19:53:55.934Z,65.54
2023-04-14T19:55:37.084Z,65.73
2023-04-14T19:57:07.198Z,65.53
2023-04-14T19:58:31.929Z,65.85
2023-04-14T20:00:23.774Z,66.16
2023-04-14T20:02:01.804Z,66.03
2023-04-14T20:03:22.551Z,66.17
2023-04-14T20:04:56.705Z,66.64
2023-04-14T20:06:34.240Z,66.58
2023-04-14T20:08:06.082Z,66.37
2023-04-14T20:09:44.010Z,66.41
2023-04-14T20:11:31.259Z,66.21
2023-04-14T20:12:54.099Z,66.42
2023-04-14T20:14:22.038Z,66.57
2023-04-14T20:15:57.010Z,66.98
2023-04-14T20:17:33.099Z,66.61
2023-04-14T20:19:05.323Z,66.99
2023-04-14T20:20:33.837Z,67.04
2023-04-14T20:22:03.950Z,67.24
2023-04-14T20:23:37.764Z,67.25
2023-04-14T20:25:09.343Z,67.16
2023-04-14T20:26:43.530Z,67.41
2023-04-14T20:28:30.181Z,67.26
2023-04-14T20:29:54.859Z,67.52
2023-04-14T20:31:38.463Z,67.36
2023-04-14T20:33:17.698Z,67.51
2023-04-14T20:34:40.149Z,67.50
2023-04-14T20:36:19.725Z,67.62
2023-04-14T20:37:51.930Z,67.94
2023-04-14T20:39:28.569Z,67.70
2023-04-14T20:41:08.242Z,67.90
2023-04-14T20:42:45.839Z,67.61
2023-04-14T20:44:17.514Z,67.71
2023-04-14T20:45:51.735Z,67.84
2023-04-14T20:47:16.724Z,67.61
2023-04-14T20:48:50.990Z,67.96
2023-04-14T20:50:13.670Z,68.04
2023-04-14T20:51:47.952Z,68.28
2023-04-14T20:53:22.061Z,67.72
2023-04-14T20:54:56.527Z,67.52
2023-04-14T20:56:19.222Z,67.56
2023-04-14T20:57:58.021Z,67.68